• Join FlightAware (Why Join?)
  • Login
  • US Flag 
08:33PM EDT


 

Airport Tracker/Info


-or-


 

Live Flight TrackerFlight Track Log ✈ N2102E ✈ 22-Jun-2013 ✈ KUZA - KRDU

Flight Track Log - Related Links

Times and Time Zones

All times are in EDT time to prevent confusion due to time zone crossing. See the N2102E flight status page for this flight to view local times or setup timezone preferences in your user account.

Time Position Orientation Groundspeed Altitude Reporting Facility
EDT Latitude Longitude Course Direction KTS MPH feet Rate Location/Type
04:52PM 34.9933 -81.0444 118° Southeast 62 71 1,200  Level Atlanta Center
04:53PM 34.9800 -81.0144 118° Southeast 85 98 1,800 480 Climbing Atlanta Center
04:54PM 34.9669 -80.9922 126° Southeast 83 96 2,400 480 Climbing Atlanta Center
04:55PM 34.9683 -80.9669 86° East 72 83 2,800 300 Climbing Atlanta Center
04:56PM 34.9739 -80.9386 77° East 90 104 3,100 120 Climbing Atlanta Center
04:57PM 34.9814 -80.9006 76° East 108 124 3,100 -60 Level Atlanta Center
04:58PM 34.9886 -80.8622 77° East 116 133 3,000 -120 Descending Atlanta Center
04:59PM 34.9897 -80.8214 88° East 107 123 2,900  Descending Atlanta Center
05:00PM 34.9931 -80.7883 83° East 104 120 3,000  Climbing Atlanta Center
05:01PM 35.0006 -80.7553 75° East 105 121 3,000  Level Atlanta Center
05:02PM 35.0036 -80.7219 84° East 105 121 3,100  Climbing Atlanta Center
05:03PM 35.0111 -80.6889 75° East 106 122 3,000 -120 Descending Atlanta Center
05:04PM 35.0164 -80.6506 80° East 107 123 2,900 -60 Descending Atlanta Center
05:05PM 35.0239 -80.6197 73° East 105 121 2,900 180 Level Atlanta Center
05:06PM 35.0314 -80.5892 73° East 96 110 3,300 360 Climbing Atlanta Center
05:07PM 35.0347 -80.5611 82° East 81 93 3,700 360 Climbing Atlanta Center
05:08PM 35.0400 -80.5253 80° East 81 93 4,200 360 Climbing Atlanta Center
05:09PM 35.0394 -80.5050 92° East 85 98 4,500 360 Climbing Atlanta Center
05:10PM 35.0489 -80.4742 69° East 83 96 4,900 300 Climbing Atlanta Center
05:11PM 35.0567 -80.4511 68° East 80 92 5,200 300 Climbing Atlanta Center
05:12PM 35.0661 -80.4228 68° East 83 96 5,600 360 Climbing Atlanta Center
05:13PM 35.0781 -80.3994 58° Northeast 84 97 6,000 300 Climbing Atlanta Center
05:14PM 35.0900 -80.3811 51° Northeast 83 96 6,200 240 Climbing Atlanta Center
05:15PM 35.1058 -80.3525 56° Northeast 81 93 6,600 300 Climbing Atlanta Center
05:16PM 35.1136 -80.3342 63° Northeast 82 94 6,800 180 Climbing Atlanta Center
05:17PM 35.1231 -80.3008 71° East 84 97 7,100 120 Climbing Atlanta Center
05:18PM 35.1283 -80.2700 78° East 91 105 7,100 -120 Level Atlanta Center
05:20PM 35.1318 -80.2273 84° East  Level FlightAware Approximate
05:27PM 35.1491 -80.0114 84° East  Level FlightAware Approximate
05:28PM 35.1525 -79.9796 82° East  Level FlightAware Approximate
05:29PM 35.1562 -79.9489 82° East  Level FlightAware Approximate
05:30PM 35.1599 -79.9183 82° East  Level FlightAware Approximate
05:31PM 35.1636 -79.8876 82° East  Level FlightAware Approximate
05:32PM 35.1673 -79.8569 82° East  Level FlightAware Approximate
05:33PM 35.1710 -79.8262 82° East  Level FlightAware Approximate
05:34PM 35.1752 -79.7919 82° East  Level FlightAware Approximate
05:35PM 35.1793 -79.7576 82° East  Level FlightAware Approximate
05:36PM 35.1834 -79.7233 82° East  Level FlightAware Approximate
05:37PM 35.1875 -79.6889 82° East  Level FlightAware Approximate
05:38PM 35.1916 -79.6546 82° East  Level FlightAware Approximate
05:39PM 35.1956 -79.6203 82° East  Level FlightAware Approximate
05:40PM 35.1997 -79.5859 82° East  Level FlightAware Approximate
05:40PM 35.3475 -79.5619 31° Northeast 105 121 5,100  Level Washington Center
05:40PM 35.3606 -79.5422 51° Northeast 105 121 5,100 -60 Level Washington Center
05:41PM 35.2225 -79.5669 31° Northeast  Level FlightAware Approximate
05:41PM 35.3803 -79.5125 51° Northeast 107 123 5,000  Level Washington Center
05:42PM 35.2469 -79.5491 31° Northeast  Level FlightAware Approximate
05:42PM 35.4061 -79.4936 31° Northeast 113 130 4,900  Level Washington Center
05:43PM 35.2712 -79.5312 31° Northeast  Level FlightAware Approximate
05:43PM 35.4278 -79.4692 43° Northeast 110 127 4,900  Level Washington Center
05:44PM 35.2955 -79.5134 31° Northeast  Level FlightAware Approximate
05:44PM 35.4433 -79.4342 61° Northeast 106 122 5,000  Level Washington Center
05:45PM 35.3199 -79.4956 31° Northeast  Level FlightAware Approximate
05:45PM 35.4611 -79.4044 54° Northeast 105 121 5,000  Level Washington Center
05:47PM 35.4744 -79.3719 63° Northeast 110 127 4,900 -300 Descending Washington Center
05:48PM 35.4944 -79.3397 53° Northeast 117 135 4,400 -600 Descending Washington Center
05:49PM 35.5103 -79.3022 63° Northeast 123 142 3,800 -600 Descending Washington Center
05:50PM 35.5278 -79.2722 54° Northeast 114 131 3,300 -480 Descending Washington Center
05:51PM 35.5456 -79.2375 58° Northeast 109 125 2,900 -300 Descending Washington Center
05:52PM 35.5592 -79.2047 63° Northeast 106 122 2,800 -60 Descending Washington Center
05:53PM 35.5744 -79.1775 55° Northeast 97 112 2,800 -180 Level Washington Center
05:53PM 35.5878 -79.1525 57° Northeast 99 114 2,500 -420 Descending Washington Center
05:54PM 35.6094 -79.1228 48° Northeast 111 128 2,100 -300 Descending Washington Center
05:55PM 35.6292 -79.0931 51° Northeast 112 129 1,900 -180 Descending Washington Center
05:56PM 35.6467 -79.0656 52° Northeast 106 122 1,800  Descending Washington Center
05:58PM 35.6681 -79.0436 40° Northeast 100 115 2,000 60 Climbing Washington Center
05:59PM 35.6878 -79.0164 48° Northeast 103 119 2,000 -60 Level Washington Center
06:00PM 35.7094 -78.9892 46° Northeast 106 122 1,900 -60 Descending Washington Center
06:01PM 35.7331 -78.9644 40° Northeast 108 124 1,900 -60 Level Washington Center
06:03PM 35.7812 -78.9230 49° Northeast  Level FlightAware Approximate
06:04PM 35.8022 -78.8753 49° Northeast 107 123 1,800  Level Washington Center
06:05PM 35.8194 -78.8528 47° Northeast 97 112 1,600 -360 Descending Washington Center
06:06PM 35.8367 -78.8331 43° Northeast 80 92 1,100 -540 Descending Washington Center
06:07PM 35.8542 -78.8108 46° Northeast 83 96 600 -540 Descending Washington Center